This is the latest recevied weather packets stored in our database for station/object IW1CBG-23. If no packets are shown the sender has not sent any weather packets the latest 10 day(s).
| Time | Temp. | Humidity | Pressure | Rain* | Wind** | Luminosity | Snow |
|---|---|---|---|---|---|---|---|
| 1788238300 | 18.33° C | 63% | 1014.9 hPa | - | - | - | - |
| 1788237063 | 18.33° C | 60% | 1014.9 hPa | - | - | - | - |
| 1788222216 | 20.56° C | 46% | 1014.5 hPa | - | - | - | - |
| 1788216030 | 22.22° C | 40% | 1014.5 hPa | - | - | - | - |
| 1788214793 | 22.22° C | 41% | 1014.5 hPa | - | - | - | - |
| 1788213556 | 22.22° C | 42% | 1014.5 hPa | - | - | - | - |
| 1788212318 | 22.78° C | 43% | 1014.5 hPa | - | - | - | - |
| 1788211080 | 22.22° C | 47% | 1014.5 hPa | - | - | - | - |
| 1788209844 | 22.22° C | 48% | 1014.4 hPa | - | - | - | - |
| 1788208606 | 22.22° C | 48% | 1014.2 hPa | - | - | - | - |
| 1788207368 | 22.22° C | 49% | 1014.2 hPa | - | - | - | - |
| 1788206131 | 22.78° C | 52% | 1014.1 hPa | - | - | - | - |
| 1788204893 | 22.78° C | 53% | 1013.9 hPa | - | - | - | - |
| 1788203652 | 21.11° C | 92% | 1014.3 hPa | - | - | - | - |
| 1788202414 | 18.89° C | 99% | 1014.2 hPa | - | - | - | - |
| 1788201178 | 18.89° C | 99% | 1014 hPa | - | - | - | - |
| 1788199940 | 18.89° C | 99% | 1013.8 hPa | - | - | - | - |
| 1788198703 | 19.44° C | 99% | 1013.7 hPa | - | - | - | - |
| 1788197468 | 20° C | 99% | 1013.6 hPa | - | - | - | - |
| 1788196232 | 19.44° C | 99% | 1013.6 hPa | - | - | - | - |
| 1788194994 | 20° C | 99% | 1013.8 hPa | - | - | - | - |
| 1788193757 | 20.56° C | 99% | 1013.8 hPa | - | - | - | - |
| 1788190046 | 22.22° C | 99% | 1014.1 hPa | - | - | - | - |
| 1788188809 | 22.22° C | 99% | 1014.1 hPa | - | - | - | - |
| 1788187574 | 23.33° C | 99% | 1014.2 hPa | - | - | - | - |
* Rain since midnight (hover to see other rain measurements)
** Current wind speed in m/s (hover to see current wind gust speed)